sensor_id;sensor_type;location;lat;lon;timestamp;temperature;humidity
9820;DHT22;4949;48.482;9.206;2023-11-21T00:01:26;9.50;97.60
9820;DHT22;4949;48.482;9.206;2023-11-21T00:06:29;9.50;96.80
9820;DHT22;4949;48.482;9.206;2023-11-21T00:11:32;9.90;96.90
9820;DHT22;4949;48.482;9.206;2023-11-21T00:16:34;9.50;96.50
9820;DHT22;4949;48.482;9.206;2023-11-21T00:21:39;9.50;96.80
9820;DHT22;4949;48.482;9.206;2023-11-21T00:26:40;9.80;96.70
9820;DHT22;4949;48.482;9.206;2023-11-21T00:31:41;9.40;96.60
9820;DHT22;4949;48.482;9.206;2023-11-21T00:36:46;9.50;96.50
9820;DHT22;4949;48.482;9.206;2023-11-21T00:41:47;9.50;96.20
9820;DHT22;4949;48.482;9.206;2023-11-21T00:46:48;9.50;95.90
9820;DHT22;4949;48.482;9.206;2023-11-21T00:51:49;9.60;95.90
9820;DHT22;4949;48.482;9.206;2023-11-21T00:56:50;9.50;95.60
9820;DHT22;4949;48.482;9.206;2023-11-21T01:01:53;9.90;95.00
9820;DHT22;4949;48.482;9.206;2023-11-21T01:06:54;9.60;94.50
9820;DHT22;4949;48.482;9.206;2023-11-21T01:11:55;9.70;94.70
9820;DHT22;4949;48.482;9.206;2023-11-21T01:16:56;9.60;94.60
9820;DHT22;4949;48.482;9.206;2023-11-21T01:21:56;10.10;94.50
9820;DHT22;4949;48.482;9.206;2023-11-21T01:26:58;9.90;94.80
9820;DHT22;4949;48.482;9.206;2023-11-21T01:32:01;9.20;94.00
9820;DHT22;4949;48.482;9.206;2023-11-21T01:37:03;9.60;93.80
9820;DHT22;4949;48.482;9.206;2023-11-21T01:42:06;9.60;93.80
9820;DHT22;4949;48.482;9.206;2023-11-21T01:47:09;9.60;93.80
9820;DHT22;4949;48.482;9.206;2023-11-21T01:52:11;9.60;93.80
9820;DHT22;4949;48.482;9.206;2023-11-21T01:57:12;9.50;94.20
9820;DHT22;4949;48.482;9.206;2023-11-21T02:02:13;9.60;94.00
9820;DHT22;4949;48.482;9.206;2023-11-21T02:07:17;9.50;93.80
9820;DHT22;4949;48.482;9.206;2023-11-21T02:12:19;9.60;94.00
9820;DHT22;4949;48.482;9.206;2023-11-21T02:17:22;10.00;93.40
9820;DHT22;4949;48.482;9.206;2023-11-21T02:22:24;9.50;93.80
9820;DHT22;4949;48.482;9.206;2023-11-21T02:27:27;9.50;93.80
9820;DHT22;4949;48.482;9.206;2023-11-21T02:32:28;9.90;94.00
9820;DHT22;4949;48.482;9.206;2023-11-21T02:37:31;9.50;93.70
9820;DHT22;4949;48.482;9.206;2023-11-21T02:42:32;9.90;93.90
9820;DHT22;4949;48.482;9.206;2023-11-21T02:47:35;9.80;93.50
9820;DHT22;4949;48.482;9.206;2023-11-21T02:52:36;9.40;93.50
9820;DHT22;4949;48.482;9.206;2023-11-21T02:57:37;9.80;93.70
9820;DHT22;4949;48.482;9.206;2023-11-21T03:02:38;9.60;93.80
9820;DHT22;4949;48.482;9.206;2023-11-21T03:07:39;9.40;93.40
9820;DHT22;4949;48.482;9.206;2023-11-21T03:12:40;9.80;93.50
9820;DHT22;4949;48.482;9.206;2023-11-21T03:17:41;9.40;93.50
9820;DHT22;4949;48.482;9.206;2023-11-21T03:22:42;9.50;93.50
9820;DHT22;4949;48.482;9.206;2023-11-21T03:27:47;9.40;93.90
9820;DHT22;4949;48.482;9.206;2023-11-21T03:32:48;9.40;93.60
9820;DHT22;4949;48.482;9.206;2023-11-21T03:37:49;9.40;93.70
9820;DHT22;4949;48.482;9.206;2023-11-21T03:42:52;9.40;93.90
9820;DHT22;4949;48.482;9.206;2023-11-21T03:47:53;9.50;93.70
9820;DHT22;4949;48.482;9.206;2023-11-21T03:52:56;9.40;93.70
9820;DHT22;4949;48.482;9.206;2023-11-21T03:57:57;9.40;93.60
9820;DHT22;4949;48.482;9.206;2023-11-21T04:02:59;9.80;93.60
9820;DHT22;4949;48.482;9.206;2023-11-21T04:07:59;10.00;93.20
9820;DHT22;4949;48.482;9.206;2023-11-21T04:13:03;9.50;93.60
9820;DHT22;4949;48.482;9.206;2023-11-21T04:18:03;9.50;93.90
9820;DHT22;4949;48.482;9.206;2023-11-21T04:23:04;9.50;93.70
9820;DHT22;4949;48.482;9.206;2023-11-21T04:28:05;10.00;93.80
9820;DHT22;4949;48.482;9.206;2023-11-21T04:33:08;9.70;94.20
9820;DHT22;4949;48.482;9.206;2023-11-21T04:38:09;9.50;94.20
9820;DHT22;4949;48.482;9.206;2023-11-21T04:43:09;9.70;94.30
9820;DHT22;4949;48.482;9.206;2023-11-21T04:48:10;9.60;93.90
9820;DHT22;4949;48.482;9.206;2023-11-21T04:53:14;9.60;94.00
9820;DHT22;4949;48.482;9.206;2023-11-21T04:58:17;9.50;94.30
9820;DHT22;4949;48.482;9.206;2023-11-21T05:03:19;9.80;94.50
9820;DHT22;4949;48.482;9.206;2023-11-21T05:08:24;9.50;94.10
9820;DHT22;4949;48.482;9.206;2023-11-21T05:13:27;9.80;94.50
9820;DHT22;4949;48.482;9.206;2023-11-21T05:18:30;9.50;94.60
9820;DHT22;4949;48.482;9.206;2023-11-21T05:23:31;9.80;94.80
9820;DHT22;4949;48.482;9.206;2023-11-21T05:28:33;9.50;94.60
9820;DHT22;4949;48.482;9.206;2023-11-21T05:33:34;9.60;94.60
9820;DHT22;4949;48.482;9.206;2023-11-21T05:38:36;9.50;94.80
9820;DHT22;4949;48.482;9.206;2023-11-21T05:43:36;9.50;95.00
9820;DHT22;4949;48.482;9.206;2023-11-21T05:48:37;9.50;94.80
9820;DHT22;4949;48.482;9.206;2023-11-21T05:53:40;9.50;95.00
9820;DHT22;4949;48.482;9.206;2023-11-21T05:58:43;9.60;95.10
9820;DHT22;4949;48.482;9.206;2023-11-21T06:03:44;9.90;95.80
9820;DHT22;4949;48.482;9.206;2023-11-21T06:08:46;9.70;95.80
9820;DHT22;4949;48.482;9.206;2023-11-21T06:13:48;9.90;95.60
9820;DHT22;4949;48.482;9.206;2023-11-21T06:18:53;9.40;95.60
9820;DHT22;4949;48.482;9.206;2023-11-21T06:23:54;9.40;95.60
9820;DHT22;4949;48.482;9.206;2023-11-21T06:28:57;9.30;95.90
9820;DHT22;4949;48.482;9.206;2023-11-21T06:33:58;9.30;96.00
9820;DHT22;4949;48.482;9.206;2023-11-21T06:39:00;9.60;96.20
9820;DHT22;4949;48.482;9.206;2023-11-21T06:44:03;9.30;96.00
9820;DHT22;4949;48.482;9.206;2023-11-21T06:49:04;9.50;96.10
9820;DHT22;4949;48.482;9.206;2023-11-21T06:54:07;9.30;95.60
9820;DHT22;4949;48.482;9.206;2023-11-21T06:59:08;9.30;96.00
9820;DHT22;4949;48.482;9.206;2023-11-21T07:04:09;9.30;95.90
9820;DHT22;4949;48.482;9.206;2023-11-21T07:09:10;9.30;95.80
9820;DHT22;4949;48.482;9.206;2023-11-21T07:14:13;9.40;95.60
9820;DHT22;4949;48.482;9.206;2023-11-21T07:19:17;9.30;95.60
9820;DHT22;4949;48.482;9.206;2023-11-21T07:24:18;9.40;95.30
9820;DHT22;4949;48.482;9.206;2023-11-21T07:29:18;9.50;95.90
9820;DHT22;4949;48.482;9.206;2023-11-21T07:34:22;9.40;96.00
9820;DHT22;4949;48.482;9.206;2023-11-21T07:39:23;9.30;96.20
9820;DHT22;4949;48.482;9.206;2023-11-21T07:44:26;9.30;96.20
9820;DHT22;4949;48.482;9.206;2023-11-21T07:49:27;9.40;95.80
9820;DHT22;4949;48.482;9.206;2023-11-21T07:54:28;9.40;96.10
9820;DHT22;4949;48.482;9.206;2023-11-21T07:59:29;9.40;95.90
9820;DHT22;4949;48.482;9.206;2023-11-21T08:04:30;9.40;96.10
9820;DHT22;4949;48.482;9.206;2023-11-21T08:09:32;9.70;96.40
9820;DHT22;4949;48.482;9.206;2023-11-21T08:14:34;9.40;96.30
9820;DHT22;4949;48.482;9.206;2023-11-21T08:19:41;9.40;96.40
9820;DHT22;4949;48.482;9.206;2023-11-21T08:24:45;9.50;96.30
9820;DHT22;4949;48.482;9.206;2023-11-21T08:29:47;9.50;96.30
9820;DHT22;4949;48.482;9.206;2023-11-21T08:34:47;9.50;96.10
9820;DHT22;4949;48.482;9.206;2023-11-21T08:39:51;9.50;96.60
9820;DHT22;4949;48.482;9.206;2023-11-21T08:44:53;9.50;96.40
9820;DHT22;4949;48.482;9.206;2023-11-21T08:49:58;9.60;96.40
9820;DHT22;4949;48.482;9.206;2023-11-21T08:54:59;9.60;96.80
9820;DHT22;4949;48.482;9.206;2023-11-21T09:00:09;9.60;96.50
9820;DHT22;4949;48.482;9.206;2023-11-21T09:05:17;9.70;96.20
9820;DHT22;4949;48.482;9.206;2023-11-21T09:10:23;9.70;96.00
9820;DHT22;4949;48.482;9.206;2023-11-21T09:15:25;9.60;96.80
9820;DHT22;4949;48.482;9.206;2023-11-21T09:20:26;9.60;96.70
9820;DHT22;4949;48.482;9.206;2023-11-21T09:25:29;9.90;96.60
9820;DHT22;4949;48.482;9.206;2023-11-21T09:30:33;9.60;96.60
9820;DHT22;4949;48.482;9.206;2023-11-21T09:35:34;9.70;96.40
9820;DHT22;4949;48.482;9.206;2023-11-21T09:40:34;10.00;95.90
9820;DHT22;4949;48.482;9.206;2023-11-21T09:45:36;9.90;95.70
9820;DHT22;4949;48.482;9.206;2023-11-21T09:50:41;9.90;95.80
9820;DHT22;4949;48.482;9.206;2023-11-21T09:55:46;9.90;95.80
9820;DHT22;4949;48.482;9.206;2023-11-21T10:00:50;9.90;95.90
9820;DHT22;4949;48.482;9.206;2023-11-21T10:05:54;10.00;95.30
9820;DHT22;4949;48.482;9.206;2023-11-21T10:10:56;10.10;94.80
9820;DHT22;4949;48.482;9.206;2023-11-21T10:16:01;10.40;95.00
9820;DHT22;4949;48.482;9.206;2023-11-21T10:21:07;10.10;94.80
9820;DHT22;4949;48.482;9.206;2023-11-21T10:26:11;10.20;95.60
9820;DHT22;4949;48.482;9.206;2023-11-21T10:31:16;9.70;96.30
9820;DHT22;4949;48.482;9.206;2023-11-21T10:36:27;9.70;96.90
9820;DHT22;4949;48.482;9.206;2023-11-21T10:41:28;9.50;98.00
9820;DHT22;4949;48.482;9.206;2023-11-21T10:46:29;10.00;98.10
9820;DHT22;4949;48.482;9.206;2023-11-21T10:51:30;9.70;98.70
9820;DHT22;4949;48.482;9.206;2023-11-21T10:56:31;9.80;97.70
9820;DHT22;4949;48.482;9.206;2023-11-21T11:01:36;9.80;98.00
9820;DHT22;4949;48.482;9.206;2023-11-21T11:06:37;9.90;98.00
9820;DHT22;4949;48.482;9.206;2023-11-21T11:11:43;9.80;97.90
9820;DHT22;4949;48.482;9.206;2023-11-21T11:16:47;9.70;98.20
9820;DHT22;4949;48.482;9.206;2023-11-21T11:33:21;9.90;98.00
9820;DHT22;4949;48.482;9.206;2023-11-21T11:38:34;9.90;97.80
9820;DHT22;4949;48.482;9.206;2023-11-21T11:43:37;9.80;98.20
9820;DHT22;4949;48.482;9.206;2023-11-21T11:49:03;9.90;98.50
9820;DHT22;4949;48.482;9.206;2023-11-21T11:54:05;10.00;97.70
9820;DHT22;4949;48.482;9.206;2023-11-21T11:59:07;10.00;97.50
9820;DHT22;4949;48.482;9.206;2023-11-21T12:09:34;10.20;97.80
9820;DHT22;4949;48.482;9.206;2023-11-21T12:14:40;10.10;97.60
9820;DHT22;4949;48.482;9.206;2023-11-21T12:19:44;10.00;98.20
9820;DHT22;4949;48.482;9.206;2023-11-21T12:24:46;10.00;98.40
9820;DHT22;4949;48.482;9.206;2023-11-21T12:29:47;10.30;98.70
9820;DHT22;4949;48.482;9.206;2023-11-21T12:34:48;9.90;99.10
9820;DHT22;4949;48.482;9.206;2023-11-21T12:39:49;10.20;98.70
9820;DHT22;4949;48.482;9.206;2023-11-21T12:50:22;9.80;99.60
9820;DHT22;4949;48.482;9.206;2023-11-21T12:55:24;9.70;99.90
9820;DHT22;4949;48.482;9.206;2023-11-21T13:00:33;9.80;99.80
9820;DHT22;4949;48.482;9.206;2023-11-21T13:05:38;10.20;99.90
9820;DHT22;4949;48.482;9.206;2023-11-21T13:10:45;9.80;99.90
9820;DHT22;4949;48.482;9.206;2023-11-21T13:20:59;9.70;99.60
9820;DHT22;4949;48.482;9.206;2023-11-21T13:26:02;9.80;99.60
9820;DHT22;4949;48.482;9.206;2023-11-21T13:31:06;9.80;99.50
9820;DHT22;4949;48.482;9.206;2023-11-21T13:36:10;10.20;99.90
9820;DHT22;4949;48.482;9.206;2023-11-21T13:41:15;9.90;99.90
9820;DHT22;4949;48.482;9.206;2023-11-21T13:46:16;10.00;99.90
9820;DHT22;4949;48.482;9.206;2023-11-21T13:51:22;9.90;99.90
9820;DHT22;4949;48.482;9.206;2023-11-21T13:56:31;10.50;99.90
9820;DHT22;4949;48.482;9.206;2023-11-21T14:01:35;10.00;99.90
9820;DHT22;4949;48.482;9.206;2023-11-21T14:06:54;10.20;99.90
9820;DHT22;4949;48.482;9.206;2023-11-21T14:12:01;10.60;99.40
9820;DHT22;4949;48.482;9.206;2023-11-21T14:17:06;10.50;98.50
9820;DHT22;4949;48.482;9.206;2023-11-21T14:22:07;10.40;98.60
9820;DHT22;4949;48.482;9.206;2023-11-21T14:27:10;10.30;99.20
9820;DHT22;4949;48.482;9.206;2023-11-21T14:32:11;10.60;99.40
9820;DHT22;4949;48.482;9.206;2023-11-21T14:37:12;10.60;99.60
9820;DHT22;4949;48.482;9.206;2023-11-21T14:42:14;10.20;99.30
9820;DHT22;4949;48.482;9.206;2023-11-21T14:47:15;10.50;99.20
9820;DHT22;4949;48.482;9.206;2023-11-21T14:52:25;10.60;99.20
9820;DHT22;4949;48.482;9.206;2023-11-21T14:57:35;10.10;98.90
9820;DHT22;4949;48.482;9.206;2023-11-21T15:02:38;10.20;99.10
9820;DHT22;4949;48.482;9.206;2023-11-21T15:07:49;10.40;99.30
9820;DHT22;4949;48.482;9.206;2023-11-21T15:12:52;10.50;99.80
9820;DHT22;4949;48.482;9.206;2023-11-21T15:17:53;9.90;99.90
9820;DHT22;4949;48.482;9.206;2023-11-21T15:22:58;10.20;99.80
9820;DHT22;4949;48.482;9.206;2023-11-21T15:27:59;9.90;99.90
9820;DHT22;4949;48.482;9.206;2023-11-21T15:33:00;9.90;99.90
9820;DHT22;4949;48.482;9.206;2023-11-21T15:38:06;9.90;99.90
9820;DHT22;4949;48.482;9.206;2023-11-21T15:43:08;10.10;99.60
9820;DHT22;4949;48.482;9.206;2023-11-21T15:48:11;10.00;99.40
9820;DHT22;4949;48.482;9.206;2023-11-21T15:53:12;10.40;99.40
9820;DHT22;4949;48.482;9.206;2023-11-21T15:58:13;10.30;99.60
9820;DHT22;4949;48.482;9.206;2023-11-21T16:03:13;9.90;99.90
9820;DHT22;4949;48.482;9.206;2023-11-21T16:08:15;9.90;99.90
9820;DHT22;4949;48.482;9.206;2023-11-21T16:13:18;9.60;99.90
9820;DHT22;4949;48.482;9.206;2023-11-21T16:18:22;9.80;99.90
9820;DHT22;4949;48.482;9.206;2023-11-21T16:23:23;9.90;99.90
9820;DHT22;4949;48.482;9.206;2023-11-21T16:28:24;10.20;99.40
9820;DHT22;4949;48.482;9.206;2023-11-21T16:33:25;10.20;99.60
9820;DHT22;4949;48.482;9.206;2023-11-21T16:38:26;10.40;99.60
9820;DHT22;4949;48.482;9.206;2023-11-21T16:43:26;10.00;99.60
9820;DHT22;4949;48.482;9.206;2023-11-21T16:48:29;10.30;99.90
9820;DHT22;4949;48.482;9.206;2023-11-21T16:53:33;9.80;99.90
9820;DHT22;4949;48.482;9.206;2023-11-21T16:58:36;9.70;99.90
9820;DHT22;4949;48.482;9.206;2023-11-21T17:03:37;9.90;99.90
9820;DHT22;4949;48.482;9.206;2023-11-21T17:08:38;9.80;99.90
9820;DHT22;4949;48.482;9.206;2023-11-21T17:13:39;10.00;99.90
9820;DHT22;4949;48.482;9.206;2023-11-21T17:18:41;9.70;99.90
9820;DHT22;4949;48.482;9.206;2023-11-21T17:23:47;9.70;99.90
9820;DHT22;4949;48.482;9.206;2023-11-21T17:28:50;9.70;99.90
9820;DHT22;4949;48.482;9.206;2023-11-21T17:33:51;9.70;99.90
9820;DHT22;4949;48.482;9.206;2023-11-21T17:38:54;9.70;99.90
9820;DHT22;4949;48.482;9.206;2023-11-21T17:43:54;10.10;99.90
9820;DHT22;4949;48.482;9.206;2023-11-21T17:48:55;10.50;99.40
9820;DHT22;4949;48.482;9.206;2023-11-21T17:53:59;10.00;99.40
9820;DHT22;4949;48.482;9.206;2023-11-21T17:59:02;9.90;99.90
9820;DHT22;4949;48.482;9.206;2023-11-21T18:04:03;9.80;99.90
9820;DHT22;4949;48.482;9.206;2023-11-21T18:09:05;9.70;99.90
9820;DHT22;4949;48.482;9.206;2023-11-21T18:14:09;9.70;99.90
9820;DHT22;4949;48.482;9.206;2023-11-21T18:19:10;9.60;99.90
9820;DHT22;4949;48.482;9.206;2023-11-21T18:24:11;9.60;99.90
9820;DHT22;4949;48.482;9.206;2023-11-21T18:29:15;9.80;99.90
9820;DHT22;4949;48.482;9.206;2023-11-21T18:34:20;9.90;99.90
9820;DHT22;4949;48.482;9.206;2023-11-21T18:39:20;9.60;99.90
9820;DHT22;4949;48.482;9.206;2023-11-21T18:44:24;10.00;99.90
9820;DHT22;4949;48.482;9.206;2023-11-21T18:49:24;9.50;99.90
9820;DHT22;4949;48.482;9.206;2023-11-21T18:54:32;9.90;99.90
9820;DHT22;4949;48.482;9.206;2023-11-21T18:59:33;9.50;99.90
9820;DHT22;4949;48.482;9.206;2023-11-21T19:04:36;9.40;99.90
9820;DHT22;4949;48.482;9.206;2023-11-21T19:09:37;9.40;99.90
9820;DHT22;4949;48.482;9.206;2023-11-21T19:14:38;9.40;99.90
9820;DHT22;4949;48.482;9.206;2023-11-21T19:19:39;9.80;99.90
9820;DHT22;4949;48.482;9.206;2023-11-21T19:24:42;9.40;99.90
9820;DHT22;4949;48.482;9.206;2023-11-21T19:29:43;9.30;99.90
9820;DHT22;4949;48.482;9.206;2023-11-21T19:34:44;9.30;99.90
9820;DHT22;4949;48.482;9.206;2023-11-21T19:39:47;9.20;99.90
9820;DHT22;4949;48.482;9.206;2023-11-21T19:44:54;9.30;99.90
9820;DHT22;4949;48.482;9.206;2023-11-21T19:49:57;9.30;99.90
9820;DHT22;4949;48.482;9.206;2023-11-21T19:54:58;9.60;99.90
9820;DHT22;4949;48.482;9.206;2023-11-21T19:59:59;9.20;99.90
9820;DHT22;4949;48.482;9.206;2023-11-21T20:05:00;9.40;99.90
9820;DHT22;4949;48.482;9.206;2023-11-21T20:10:01;9.20;99.90
9820;DHT22;4949;48.482;9.206;2023-11-21T20:15:03;9.30;99.90
9820;DHT22;4949;48.482;9.206;2023-11-21T20:20:07;9.20;99.90
9820;DHT22;4949;48.482;9.206;2023-11-21T20:25:09;9.10;99.90
9820;DHT22;4949;48.482;9.206;2023-11-21T20:30:11;9.20;99.90
9820;DHT22;4949;48.482;9.206;2023-11-21T20:35:15;9.10;99.90
9820;DHT22;4949;48.482;9.206;2023-11-21T20:40:16;9.10;99.90
9820;DHT22;4949;48.482;9.206;2023-11-21T20:45:17;9.10;99.90
9820;DHT22;4949;48.482;9.206;2023-11-21T20:50:31;9.10;99.90
9820;DHT22;4949;48.482;9.206;2023-11-21T20:55:32;9.10;99.90
9820;DHT22;4949;48.482;9.206;2023-11-21T21:00:38;9.10;99.90
9820;DHT22;4949;48.482;9.206;2023-11-21T21:05:39;9.10;99.90
9820;DHT22;4949;48.482;9.206;2023-11-21T21:10:39;9.10;99.90
9820;DHT22;4949;48.482;9.206;2023-11-21T21:15:42;9.10;99.90
9820;DHT22;4949;48.482;9.206;2023-11-21T21:20:48;9.10;99.90
9820;DHT22;4949;48.482;9.206;2023-11-21T21:25:53;9.10;99.90
9820;DHT22;4949;48.482;9.206;2023-11-21T21:30:57;9.50;99.90
9820;DHT22;4949;48.482;9.206;2023-11-21T21:36:00;9.40;99.90
9820;DHT22;4949;48.482;9.206;2023-11-21T21:41:10;9.10;99.90
9820;DHT22;4949;48.482;9.206;2023-11-21T21:46:18;8.80;99.90
9820;DHT22;4949;48.482;9.206;2023-11-21T21:51:19;9.10;99.90
9820;DHT22;4949;48.482;9.206;2023-11-21T21:56:23;9.10;99.90
9820;DHT22;4949;48.482;9.206;2023-11-21T22:01:24;9.10;99.90
9820;DHT22;4949;48.482;9.206;2023-11-21T22:06:26;9.50;99.90
9820;DHT22;4949;48.482;9.206;2023-11-21T22:11:32;9.40;99.90
9820;DHT22;4949;48.482;9.206;2023-11-21T22:16:36;9.10;99.90
9820;DHT22;4949;48.482;9.206;2023-11-21T22:21:36;9.50;99.90
9820;DHT22;4949;48.482;9.206;2023-11-21T22:26:37;9.10;99.90
9820;DHT22;4949;48.482;9.206;2023-11-21T22:31:41;9.10;99.90
9820;DHT22;4949;48.482;9.206;2023-11-21T22:36:42;9.10;99.90
9820;DHT22;4949;48.482;9.206;2023-11-21T22:41:43;9.40;99.90
9820;DHT22;4949;48.482;9.206;2023-11-21T22:46:46;9.00;99.90
9820;DHT22;4949;48.482;9.206;2023-11-21T22:51:47;9.10;99.90
9820;DHT22;4949;48.482;9.206;2023-11-21T22:56:48;8.90;99.90
9820;DHT22;4949;48.482;9.206;2023-11-21T23:01:54;9.40;99.90
9820;DHT22;4949;48.482;9.206;2023-11-21T23:06:54;9.00;99.90
9820;DHT22;4949;48.482;9.206;2023-11-21T23:11:55;8.90;99.90
9820;DHT22;4949;48.482;9.206;2023-11-21T23:16:57;8.80;99.90
9820;DHT22;4949;48.482;9.206;2023-11-21T23:22:00;8.90;99.90
9820;DHT22;4949;48.482;9.206;2023-11-21T23:27:01;8.90;99.90
9820;DHT22;4949;48.482;9.206;2023-11-21T23:32:02;8.90;99.90
9820;DHT22;4949;48.482;9.206;2023-11-21T23:37:03;8.90;99.90
9820;DHT22;4949;48.482;9.206;2023-11-21T23:42:04;8.90;99.90
9820;DHT22;4949;48.482;9.206;2023-11-21T23:47:05;8.90;99.90
9820;DHT22;4949;48.482;9.206;2023-11-21T23:52:06;8.90;99.90
9820;DHT22;4949;48.482;9.206;2023-11-21T23:57:07;8.80;99.90
